createdAt,value
2023-02-03T00:00:48.084Z,1.10
2023-02-03T00:03:15.341Z,0.63
2023-02-03T00:05:42.624Z,0.80
2023-02-03T00:08:10.470Z,1.13
2023-02-03T00:10:39.233Z,0.85
2023-02-03T00:13:07.303Z,1.10
2023-02-03T00:15:34.238Z,1.25
2023-02-03T00:18:01.197Z,1.60
2023-02-03T00:20:28.680Z,1.83
2023-02-03T00:22:55.957Z,1.45
2023-02-03T00:25:22.911Z,1.65
2023-02-03T00:27:49.838Z,1.15
2023-02-03T00:30:16.903Z,1.50
2023-02-03T00:32:43.900Z,1.00
2023-02-03T00:35:10.983Z,1.45
2023-02-03T00:37:37.971Z,1.10
2023-02-03T00:40:05.309Z,1.30
2023-02-03T00:42:32.333Z,1.20
2023-02-03T00:44:59.326Z,0.85
2023-02-03T00:47:26.661Z,1.15
2023-02-03T00:49:53.776Z,1.65
2023-02-03T00:52:20.788Z,1.50
2023-02-03T00:54:47.764Z,1.80
2023-02-03T00:57:14.686Z,1.70
2023-02-03T00:59:41.858Z,1.88
2023-02-03T01:02:09.076Z,1.52
2023-02-03T01:04:35.981Z,2.05
2023-02-03T01:07:03.495Z,1.80
2023-02-03T01:09:34.461Z,1.38
2023-02-03T01:12:01.656Z,1.70
2023-02-03T01:14:28.732Z,1.40
2023-02-03T01:16:55.957Z,1.38
2023-02-03T01:19:23.125Z,1.13
2023-02-03T01:21:50.143Z,1.30
2023-02-03T01:24:17.315Z,1.35
2023-02-03T01:26:44.505Z,1.27
2023-02-03T01:29:12.037Z,1.40
2023-02-03T01:31:40.923Z,1.35
2023-02-03T01:34:12.454Z,1.83
2023-02-03T01:36:39.707Z,1.40
2023-02-03T01:39:07.022Z,1.77
2023-02-03T01:41:37.825Z,1.50
2023-02-03T01:44:43.563Z,1.70
2023-02-03T01:47:33.897Z,1.50
2023-02-03T01:50:12.927Z,1.70
2023-02-03T01:52:43.145Z,1.52
2023-02-03T01:55:13.969Z,1.67
2023-02-03T01:57:51.159Z,1.77
2023-02-03T02:00:18.857Z,1.75
2023-02-03T02:02:47.802Z,1.50
2023-02-03T02:05:40.933Z,1.83
2023-02-03T02:08:09.043Z,1.88
2023-02-03T02:10:36.241Z,1.55
2023-02-03T02:13:05.170Z,1.63
2023-02-03T02:15:58.331Z,1.45
2023-02-03T02:18:46.512Z,1.45
2023-02-03T02:21:46.736Z,1.30
2023-02-03T02:24:42.180Z,1.50
2023-02-03T02:27:33.459Z,1.58
2023-02-03T02:30:15.569Z,1.60
2023-02-03T02:33:04.576Z,1.38
2023-02-03T02:35:50.210Z,1.65
2023-02-03T02:38:34.358Z,1.17
2023-02-03T02:41:13.472Z,1.00
2023-02-03T02:43:44.649Z,0.93
2023-02-03T02:46:19.360Z,1.00
2023-02-03T02:49:02.847Z,1.38
2023-02-03T02:51:31.863Z,0.80
2023-02-03T02:54:04.130Z,1.02
2023-02-03T02:56:34.725Z,0.90
2023-02-03T02:59:04.638Z,1.10
2023-02-03T03:01:31.899Z,0.90
2023-02-03T03:04:04.333Z,1.40
2023-02-03T03:06:48.540Z,1.08
2023-02-03T03:09:36.739Z,1.60
2023-02-03T03:12:26.480Z,1.30
2023-02-03T03:15:14.631Z,1.27
2023-02-03T03:17:45.781Z,1.20
2023-02-03T03:20:20.348Z,1.23
2023-02-03T03:22:53.304Z,1.40
2023-02-03T03:25:24.939Z,1.67
2023-02-03T03:28:03.093Z,1.25
2023-02-03T03:30:35.707Z,1.35
2023-02-03T03:33:03.859Z,1.10
2023-02-03T03:35:45.831Z,1.10
2023-02-03T03:38:23.728Z,1.20
2023-02-03T03:40:57.999Z,1.20
2023-02-03T03:43:31.251Z,1.45
2023-02-03T03:46:04.065Z,1.05
2023-02-03T03:49:02.392Z,1.50
2023-02-03T03:51:35.829Z,1.23
2023-02-03T03:54:08.748Z,1.92
2023-02-03T03:56:44.401Z,1.02
2023-02-03T03:59:14.602Z,1.40
2023-02-03T04:01:42.993Z,1.10
2023-02-03T04:04:12.079Z,1.30
2023-02-03T04:06:40.034Z,1.02
2023-02-03T04:09:07.371Z,1.00
2023-02-03T04:11:52.877Z,1.20
2023-02-03T04:14:19.894Z,1.35
2023-02-03T04:16:46.851Z,1.33
2023-02-03T04:19:14.196Z,0.95
2023-02-03T04:21:41.201Z,1.67
2023-02-03T04:24:08.290Z,1.15
2023-02-03T04:26:35.315Z,2.30
2023-02-03T04:29:03.092Z,1.30
2023-02-03T04:31:30.443Z,1.20
2023-02-03T04:33:57.467Z,1.38
2023-02-03T04:36:24.396Z,0.90
2023-02-03T04:38:51.613Z,0.98
2023-02-03T04:41:19.014Z,0.98
2023-02-03T04:43:46.109Z,1.25
2023-02-03T04:46:13.172Z,0.95
2023-02-03T04:48:40.546Z,1.10
2023-02-03T04:51:09.594Z,1.95
2023-02-03T04:53:37.088Z,1.48
2023-02-03T04:56:04.358Z,1.10
2023-02-03T04:58:31.296Z,1.40
2023-02-03T05:00:58.405Z,1.60
2023-02-03T05:03:26.408Z,1.95
2023-02-03T05:05:56.533Z,1.13
2023-02-03T05:08:23.635Z,1.13
2023-02-03T05:10:50.579Z,1.50
2023-02-03T05:13:17.604Z,2.47
2023-02-03T05:15:44.848Z,2.03
2023-02-03T05:18:11.782Z,1.48
2023-02-03T05:20:39.033Z,1.77
2023-02-03T05:23:05.997Z,1.50
2023-02-03T05:25:32.972Z,1.42
2023-02-03T05:28:00.100Z,1.42
2023-02-03T05:30:27.286Z,2.10
2023-02-03T05:32:54.536Z,1.70
2023-02-03T05:35:22.058Z,2.00
2023-02-03T05:37:49.147Z,2.97
2023-02-03T05:40:34.761Z,2.15
2023-02-03T05:43:01.755Z,1.60
2023-02-03T05:45:29.235Z,1.60
2023-02-03T05:47:56.213Z,1.52
2023-02-03T05:50:23.396Z,1.20
2023-02-03T05:52:50.341Z,1.40
2023-02-03T05:55:17.342Z,1.85
2023-02-03T05:57:44.338Z,1.52
2023-02-03T06:00:12.051Z,1.45
2023-02-03T06:02:38.977Z,0.93
2023-02-03T06:05:06.368Z,2.63
2023-02-03T06:07:33.298Z,2.53
2023-02-03T06:10:00.294Z,2.95
2023-02-03T06:12:29.115Z,2.58
2023-02-03T06:14:56.440Z,1.85
2023-02-03T06:17:23.462Z,1.65
2023-02-03T06:19:50.440Z,2.20
2023-02-03T06:22:17.446Z,3.72
2023-02-03T06:24:46.293Z,3.83
2023-02-03T06:27:13.260Z,4.78
2023-02-03T06:29:40.375Z,3.75
2023-02-03T06:32:07.309Z,2.40
2023-02-03T06:34:34.281Z,2.20
2023-02-03T06:37:01.589Z,1.55
2023-02-03T06:39:28.581Z,1.88
2023-02-03T06:41:56.515Z,2.70
2023-02-03T06:44:23.897Z,1.92
2023-02-03T06:46:50.973Z,1.63
2023-02-03T06:49:18.611Z,2.50
2023-02-03T06:51:46.431Z,3.45
2023-02-03T06:54:13.695Z,2.55
2023-02-03T06:56:40.651Z,3.13
2023-02-03T06:59:09.018Z,2.38
2023-02-03T07:01:36.926Z,1.90
2023-02-03T07:04:04.515Z,2.10
2023-02-03T07:06:34.143Z,2.15
2023-02-03T07:09:02.579Z,2.50
2023-02-03T07:11:29.566Z,2.40
2023-02-03T07:13:56.598Z,2.33
2023-02-03T07:16:24.092Z,2.35
2023-02-03T07:18:51.010Z,4.00
2023-02-03T07:21:18.258Z,4.22
2023-02-03T07:23:48.655Z,3.58
2023-02-03T07:26:16.435Z,3.25
2023-02-03T07:28:43.381Z,4.90
2023-02-03T07:31:10.633Z,4.32
2023-02-03T07:33:38.591Z,3.15
2023-02-03T07:36:07.630Z,3.10
2023-02-03T07:38:34.558Z,2.55
2023-02-03T07:41:01.457Z,2.97
2023-02-03T07:43:28.360Z,2.47
2023-02-03T07:45:55.330Z,3.50
2023-02-03T07:48:22.307Z,1.33
2023-02-03T07:50:50.898Z,2.25
2023-02-03T07:53:18.078Z,2.88
2023-02-03T07:55:45.219Z,1.80
2023-02-03T07:58:12.253Z,3.15
2023-02-03T08:00:39.344Z,3.20
2023-02-03T08:03:06.290Z,4.15
2023-02-03T08:05:33.263Z,3.13
2023-02-03T08:08:00.158Z,2.83
2023-02-03T08:10:27.372Z,2.55
2023-02-03T08:12:55.671Z,3.08
2023-02-03T08:15:22.631Z,2.75
2023-02-03T08:17:50.217Z,2.63
2023-02-03T08:20:17.744Z,1.95
2023-02-03T08:22:44.992Z,1.55
2023-02-03T08:25:12.441Z,1.40
2023-02-03T08:27:39.950Z,2.63
2023-02-03T08:30:10.406Z,2.53
2023-02-03T08:32:37.367Z,2.20
2023-02-03T08:35:04.521Z,1.67
2023-02-03T08:37:32.685Z,2.42
2023-02-03T08:40:00.461Z,1.60
2023-02-03T08:42:27.457Z,1.90
2023-02-03T08:44:54.425Z,2.65
2023-02-03T08:47:21.462Z,3.60
2023-02-03T08:49:48.744Z,2.80
2023-02-03T08:52:18.142Z,3.03
2023-02-03T08:54:46.512Z,2.95
2023-02-03T08:57:13.906Z,3.13
2023-02-03T08:59:42.968Z,2.38
2023-02-03T09:02:15.661Z,2.38
2023-02-03T09:04:43.007Z,2.65
2023-02-03T09:07:10.197Z,1.67
2023-02-03T09:09:37.560Z,1.83
2023-02-03T09:12:07.175Z,1.98
2023-02-03T09:14:35.056Z,1.73
2023-02-03T09:17:03.867Z,1.58
2023-02-03T09:19:31.862Z,1.85
2023-02-03T09:22:00.353Z,1.83
2023-02-03T09:24:27.610Z,1.25
2023-02-03T09:26:55.228Z,1.00
2023-02-03T09:29:23.322Z,1.20
2023-02-03T09:31:53.077Z,1.17
2023-02-03T09:34:20.944Z,1.20
2023-02-03T09:36:48.095Z,1.10
2023-02-03T09:39:15.901Z,1.02
2023-02-03T09:42:00.179Z,1.40
2023-02-03T09:44:54.206Z,1.20
2023-02-03T09:47:34.807Z,1.40
2023-02-03T09:50:10.936Z,1.17
2023-02-03T09:52:40.912Z,1.20
2023-02-03T09:55:16.867Z,1.02
2023-02-03T09:57:51.597Z,1.75
2023-02-03T10:00:30.571Z,1.00
2023-02-03T10:03:03.899Z,1.75
2023-02-03T10:05:36.886Z,1.17
2023-02-03T10:08:30.088Z,1.30
2023-02-03T10:11:18.978Z,1.27
2023-02-03T10:13:53.652Z,2.05
2023-02-03T10:16:58.411Z,1.00
2023-02-03T10:19:42.108Z,1.45
2023-02-03T10:22:16.636Z,0.93
2023-02-03T10:24:53.915Z,1.20
2023-02-03T10:27:24.430Z,1.25
2023-02-03T10:30:17.250Z,1.42
2023-02-03T10:32:44.167Z,1.65
2023-02-03T10:35:15.547Z,2.00
2023-02-03T10:37:53.679Z,1.02
2023-02-03T10:40:22.698Z,1.02
2023-02-03T10:43:09.013Z,1.35
2023-02-03T10:45:38.782Z,1.40
2023-02-03T10:48:11.375Z,1.40
2023-02-03T10:50:47.770Z,1.20
2023-02-03T10:53:32.802Z,1.60
2023-02-03T10:56:13.257Z,1.77
2023-02-03T10:58:57.068Z,1.58
2023-02-03T11:01:26.552Z,1.30
2023-02-03T11:04:05.865Z,1.20
2023-02-03T11:06:34.314Z,1.10
2023-02-03T11:09:01.487Z,1.73
2023-02-03T11:11:32.559Z,1.45
2023-02-03T11:14:05.620Z,1.58
2023-02-03T11:16:39.262Z,1.42
2023-02-03T11:19:14.250Z,2.08
2023-02-03T11:21:52.401Z,1.50
2023-02-03T11:24:27.799Z,1.35
2023-02-03T11:27:14.838Z,1.00
2023-02-03T11:29:55.939Z,0.82
2023-02-03T11:32:41.783Z,1.50
2023-02-03T11:35:29.712Z,1.00
2023-02-03T11:38:02.023Z,1.55
2023-02-03T11:40:38.517Z,1.13
2023-02-03T11:43:26.791Z,1.65
2023-02-03T11:45:59.139Z,1.20
2023-02-03T11:48:47.968Z,1.35
2023-02-03T11:51:45.491Z,1.20
2023-02-03T11:54:43.122Z,1.35
2023-02-03T11:57:16.068Z,1.55
2023-02-03T12:00:04.779Z,1.30
2023-02-03T12:03:11.980Z,1.50
2023-02-03T12:06:04.371Z,1.13
2023-02-03T12:08:37.293Z,1.20
2023-02-03T12:11:36.551Z,1.30
2023-02-03T12:14:29.002Z,1.10
2023-02-03T12:17:10.940Z,1.70
2023-02-03T12:19:49.868Z,1.40
2023-02-03T12:22:28.434Z,1.17
2023-02-03T12:25:10.582Z,0.80
2023-02-03T12:28:27.409Z,1.10
2023-02-03T12:31:07.897Z,1.00
2023-02-03T12:33:43.500Z,0.95
2023-02-03T12:36:14.200Z,1.08
2023-02-03T12:39:09.281Z,1.33
2023-02-03T12:41:46.606Z,1.08
2023-02-03T12:44:41.944Z,1.02
2023-02-03T12:47:14.674Z,0.90
2023-02-03T12:49:53.219Z,1.00
2023-02-03T12:52:47.054Z,1.20
2023-02-03T12:55:33.278Z,1.58
2023-02-03T12:58:09.879Z,0.85
2023-02-03T13:00:58.867Z,1.15
2023-02-03T13:03:44.356Z,1.27
2023-02-03T13:06:11.526Z,1.40
2023-02-03T13:09:13.614Z,1.35
2023-02-03T13:11:47.209Z,1.13
2023-02-03T13:14:38.677Z,1.10
2023-02-03T13:17:12.978Z,1.27
2023-02-03T13:19:50.292Z,0.98
2023-02-03T13:22:18.020Z,1.60
2023-02-03T13:24:51.448Z,1.80
2023-02-03T13:27:36.469Z,1.20
2023-02-03T13:30:15.370Z,1.17
2023-02-03T13:33:12.816Z,1.20
2023-02-03T13:36:24.766Z,1.23
2023-02-03T13:39:05.228Z,1.95
2023-02-03T13:41:58.151Z,1.10
2023-02-03T13:44:28.813Z,2.13
2023-02-03T13:46:59.351Z,1.00
2023-02-03T13:49:32.991Z,1.02
2023-02-03T13:52:00.516Z,1.30
2023-02-03T13:54:42.617Z,0.60
2023-02-03T13:57:27.473Z,1.20
2023-02-03T13:59:54.426Z,1.13
2023-02-03T14:02:24.501Z,1.02
2023-02-03T14:04:55.183Z,1.13
2023-02-03T14:07:38.327Z,1.05
2023-02-03T14:10:16.108Z,1.35
2023-02-03T14:12:52.168Z,1.30
2023-02-03T14:15:21.807Z,1.20
2023-02-03T14:17:48.658Z,1.40
2023-02-03T14:20:27.829Z,1.15
2023-02-03T14:22:57.123Z,1.42
2023-02-03T14:25:25.560Z,1.80
2023-02-03T14:28:05.709Z,1.60
2023-02-03T14:30:32.766Z,2.00
2023-02-03T14:33:02.957Z,1.60
2023-02-03T14:35:31.668Z,1.42
2023-02-03T14:38:02.994Z,1.58
2023-02-03T14:40:58.419Z,1.45
2023-02-03T14:44:00.659Z,1.80
2023-02-03T14:46:59.074Z,1.65
2023-02-03T14:49:28.977Z,3.88
2023-02-03T14:52:14.417Z,1.98
2023-02-03T14:55:06.152Z,1.70
2023-02-03T14:57:41.960Z,1.63
2023-02-03T15:00:31.567Z,1.50
2023-02-03T15:03:10.148Z,2.15
2023-02-03T15:05:41.461Z,1.80
2023-02-03T15:08:40.160Z,6.88
2023-02-03T15:11:32.458Z,1.50
2023-02-03T15:14:24.125Z,1.52
2023-02-03T15:16:56.362Z,1.40
2023-02-03T15:19:27.026Z,1.45
2023-02-03T15:21:54.041Z,1.83
2023-02-03T15:24:24.039Z,1.25
2023-02-03T15:27:00.036Z,1.20
2023-02-03T15:29:31.005Z,1.00
2023-02-03T15:32:05.157Z,1.42
2023-02-03T15:34:49.691Z,0.95
2023-02-03T15:37:31.311Z,1.20
2023-02-03T15:40:02.158Z,1.60
2023-02-03T15:42:29.055Z,1.38
2023-02-03T15:45:15.537Z,1.20
2023-02-03T15:47:51.929Z,1.50
2023-02-03T15:50:40.085Z,1.20
2023-02-03T15:53:29.686Z,1.48
2023-02-03T15:56:05.683Z,2.60
2023-02-03T15:58:45.489Z,5.53
2023-02-03T16:01:18.050Z,2.35
2023-02-03T16:03:54.277Z,1.58
2023-02-03T16:06:27.875Z,1.50
2023-02-03T16:08:56.492Z,2.55
2023-02-03T16:11:35.469Z,2.60
2023-02-03T16:14:04.928Z,1.42
2023-02-03T16:16:37.025Z,2.45
2023-02-03T16:19:06.617Z,2.50
2023-02-03T16:21:36.962Z,2.03
2023-02-03T16:24:05.943Z,1.75
2023-02-03T16:26:36.478Z,1.38
2023-02-03T16:29:30.786Z,2.30
2023-02-03T16:32:16.642Z,1.67
2023-02-03T16:35:02.392Z,2.15
2023-02-03T16:37:53.928Z,2.25
2023-02-03T16:40:42.164Z,2.13
2023-02-03T16:43:33.100Z,3.78
2023-02-03T16:46:20.106Z,2.50
2023-02-03T16:49:06.468Z,2.22
2023-02-03T16:51:39.939Z,1.77
2023-02-03T16:54:13.668Z,3.03
2023-02-03T16:56:41.819Z,2.35
2023-02-03T16:59:09.699Z,2.25
2023-02-03T17:01:36.736Z,1.80
2023-02-03T17:04:04.540Z,2.63
2023-02-03T17:06:33.618Z,1.73
2023-02-03T17:09:01.033Z,2.03
2023-02-03T17:11:28.575Z,1.70
2023-02-03T17:13:55.708Z,1.90
2023-02-03T17:16:25.395Z,1.95
2023-02-03T17:18:55.324Z,1.90
2023-02-03T17:21:25.601Z,2.33
2023-02-03T17:23:53.159Z,2.50
2023-02-03T17:26:20.776Z,1.85
2023-02-03T17:28:48.219Z,2.80
2023-02-03T17:31:18.558Z,1.50
2023-02-03T17:33:46.718Z,1.50
2023-02-03T17:36:16.184Z,2.53
2023-02-03T17:55:19.555Z,1.85
2023-02-03T17:57:46.849Z,2.03
2023-02-03T18:00:14.382Z,2.80
2023-02-03T18:02:43.489Z,1.98
2023-02-03T18:05:11.323Z,1.48
2023-02-03T18:07:38.512Z,2.08
2023-02-03T18:10:09.311Z,1.60
2023-02-03T18:12:36.361Z,1.60
2023-02-03T18:15:04.156Z,1.63
2023-02-03T18:17:31.475Z,1.80
2023-02-03T18:20:00.679Z,1.90
2023-02-03T18:22:28.027Z,0.93
2023-02-03T18:24:55.766Z,2.15
2023-02-03T18:27:23.279Z,1.60
2023-02-03T18:29:50.398Z,1.55
2023-02-03T18:32:17.624Z,1.42
2023-02-03T18:34:45.111Z,2.30
2023-02-03T18:37:12.503Z,1.90
2023-02-03T18:39:39.867Z,1.88
2023-02-03T18:42:07.528Z,2.45
2023-02-03T18:44:34.888Z,1.35
2023-02-03T18:47:07.129Z,1.70
2023-02-03T18:49:36.636Z,1.40
2023-02-03T18:52:04.804Z,1.63
2023-02-03T18:54:32.304Z,2.30
2023-02-03T18:57:00.164Z,1.45
2023-02-03T18:59:27.596Z,0.95
2023-02-03T19:01:55.045Z,1.10
2023-02-03T19:04:22.777Z,2.35
2023-02-03T19:06:50.193Z,2.00
2023-02-03T19:09:19.313Z,1.17
2023-02-03T19:11:50.307Z,1.55
2023-02-03T19:14:18.176Z,3.17
2023-02-03T19:16:45.986Z,2.00
2023-02-03T19:19:14.433Z,1.30
2023-02-03T19:21:41.563Z,1.50
2023-02-03T19:24:08.768Z,1.90
2023-02-03T19:26:35.680Z,1.27
2023-02-03T19:29:03.000Z,1.65
2023-02-03T19:31:30.138Z,0.90
2023-02-03T19:34:00.240Z,1.10
2023-02-03T19:36:28.439Z,1.27
2023-02-03T19:38:55.849Z,1.30
2023-02-03T19:41:23.685Z,1.45
2023-02-03T19:43:52.230Z,0.95
2023-02-03T19:46:21.761Z,0.82
2023-02-03T19:48:49.180Z,1.00
2023-02-03T19:51:16.201Z,1.60
2023-02-03T19:53:43.725Z,0.90
2023-02-03T19:56:10.960Z,0.68
2023-02-03T19:58:38.991Z,0.70
2023-02-03T20:01:06.382Z,0.60
2023-02-03T20:03:33.680Z,1.02
2023-02-03T20:06:01.272Z,0.63
2023-02-03T20:08:28.865Z,0.70
2023-02-03T20:10:56.146Z,1.52
2023-02-03T20:13:23.172Z,1.10
2023-02-03T20:15:50.603Z,1.65
2023-02-03T20:18:17.663Z,1.70
2023-02-03T20:20:44.616Z,1.52
2023-02-03T20:23:11.847Z,1.30
2023-02-03T20:25:38.827Z,1.10
2023-02-03T20:28:05.867Z,1.35
2023-02-03T20:30:33.371Z,1.10
2023-02-03T20:33:00.730Z,1.00
2023-02-03T20:35:27.866Z,1.17
2023-02-03T20:37:55.028Z,0.82
2023-02-03T20:40:23.885Z,0.90
2023-02-03T20:42:53.015Z,1.40
2023-02-03T20:45:22.825Z,1.10
2023-02-03T20:47:50.794Z,1.10
2023-02-03T20:50:23.621Z,0.77
2023-02-03T20:52:53.073Z,1.13
2023-02-03T20:55:22.513Z,1.40
2023-02-03T20:57:55.242Z,1.70
2023-02-03T21:00:27.382Z,1.02
2023-02-03T21:03:13.486Z,1.15
2023-02-03T21:05:43.273Z,1.10
2023-02-03T21:08:18.977Z,0.80
2023-02-03T21:10:47.482Z,0.80
2023-02-03T21:13:25.310Z,0.95
2023-02-03T21:15:55.209Z,0.80
2023-02-03T21:18:48.148Z,1.05
2023-02-03T21:21:20.072Z,0.90
2023-02-03T21:23:47.799Z,0.93
2023-02-03T21:26:21.168Z,0.70
2023-02-03T21:28:52.181Z,0.98
2023-02-03T21:31:31.495Z,0.50
2023-02-03T21:34:03.230Z,0.55
2023-02-03T21:36:37.401Z,0.65
2023-02-03T21:39:25.711Z,0.60
2023-02-03T21:41:52.863Z,0.70
2023-02-03T21:44:38.374Z,0.60
2023-02-03T21:47:10.701Z,0.60
2023-02-03T21:49:38.476Z,0.43
2023-02-03T21:52:08.073Z,0.50
2023-02-03T21:54:39.499Z,0.57
2023-02-03T21:57:13.269Z,0.88
2023-02-03T21:59:47.086Z,0.50
2023-02-03T22:02:49.367Z,0.50
2023-02-03T22:05:16.892Z,0.60
2023-02-03T22:07:43.961Z,1.25
2023-02-03T22:10:10.928Z,0.50
2023-02-03T22:12:38.877Z,0.40
2023-02-03T22:15:15.583Z,0.30
2023-02-03T22:17:42.663Z,0.40
2023-02-03T22:20:11.256Z,1.23
2023-02-03T22:22:38.212Z,0.50
2023-02-03T22:25:07.246Z,1.27
2023-02-03T22:27:34.177Z,0.40
2023-02-03T22:30:01.306Z,0.45
2023-02-03T22:32:28.515Z,0.28
2023-02-03T22:34:55.556Z,0.55
2023-02-03T22:37:22.523Z,0.50
2023-02-03T22:39:49.450Z,0.30
2023-02-03T22:42:17.773Z,0.30
2023-02-03T22:44:45.048Z,0.35
2023-02-03T22:47:11.982Z,0.20
2023-02-03T22:49:38.928Z,0.28
2023-02-03T22:52:06.804Z,0.80
2023-02-03T22:54:33.889Z,1.52
2023-02-03T22:57:00.914Z,0.90
2023-02-03T22:59:27.994Z,0.40
2023-02-03T23:01:54.987Z,0.57
2023-02-03T23:04:23.068Z,0.60
2023-02-03T23:06:50.268Z,0.55
2023-02-03T23:09:17.400Z,0.30
2023-02-03T23:11:44.399Z,1.17
2023-02-03T23:14:11.964Z,0.90
2023-02-03T23:16:39.065Z,0.82
2023-02-03T23:19:06.000Z,0.70
2023-02-03T23:21:32.950Z,0.80
2023-02-03T23:23:59.851Z,0.63
2023-02-03T23:26:26.914Z,0.47
2023-02-03T23:28:53.874Z,0.70
2023-02-03T23:31:20.974Z,0.40
2023-02-03T23:34:07.134Z,0.60
2023-02-03T23:36:35.338Z,0.40
2023-02-03T23:39:02.286Z,0.65
2023-02-03T23:41:29.195Z,0.88
2023-02-03T23:43:56.095Z,0.50
2023-02-03T23:46:23.157Z,0.50
2023-02-03T23:48:50.139Z,0.73
2023-02-03T23:51:17.164Z,0.43
2023-02-03T23:53:44.258Z,0.38
2023-02-03T23:56:13.644Z,0.35
2023-02-03T23:58:40.701Z,0.40
